sensor_id;sensor_type;location;lat;lon;timestamp;pressure;altitude;pressure_sealevel;temperature;humidity
1776;BME280;885;42.626;23.200;2023-10-13T00:00:47;103131.59;;;12.12;100.00
1776;BME280;885;42.626;23.200;2023-10-13T00:03:22;102303.75;;;11.97;100.00
1776;BME280;885;42.626;23.200;2023-10-13T00:05:51;102891.28;;;11.92;100.00
1776;BME280;885;42.626;23.200;2023-10-13T00:08:18;103408.69;;;11.94;100.00
1776;BME280;885;42.626;23.200;2023-10-13T00:10:46;103823.03;;;11.92;100.00
1776;BME280;885;42.626;23.200;2023-10-13T00:13:14;103541.63;;;11.84;100.00
1776;BME280;885;42.626;23.200;2023-10-13T00:15:45;103679.66;;;11.81;100.00
1776;BME280;885;42.626;23.200;2023-10-13T00:18:22;104455.13;;;11.76;100.00
1776;BME280;885;42.626;23.200;2023-10-13T00:20:51;105509.69;;;11.77;100.00
1776;BME280;885;42.626;23.200;2023-10-13T00:23:21;106229.69;;;11.83;100.00
1776;BME280;885;42.626;23.200;2023-10-13T00:25:49;106477.31;;;11.81;100.00
1776;BME280;885;42.626;23.200;2023-10-13T00:28:26;106849.44;;;11.81;100.00
1776;BME280;885;42.626;23.200;2023-10-13T00:31:01;106908.69;;;11.80;100.00
1776;BME280;885;42.626;23.200;2023-10-13T00:33:36;107360.13;;;11.75;100.00
1776;BME280;885;42.626;23.200;2023-10-13T00:36:03;108638.38;;;11.79;100.00
1776;BME280;885;42.626;23.200;2023-10-13T00:38:30;109310.97;;;11.82;100.00
1776;BME280;885;42.626;23.200;2023-10-13T00:40:58;109844.91;;;11.81;100.00
1776;BME280;885;42.626;23.200;2023-10-13T00:43:30;110219.78;;;11.84;100.00
1776;BME280;885;42.626;23.200;2023-10-13T00:46:03;109636.88;;;11.80;100.00
1776;BME280;885;42.626;23.200;2023-10-13T00:48:41;110193.91;;;11.77;100.00
1776;BME280;885;42.626;23.200;2023-10-13T00:51:09;110177.94;;;11.68;100.00
1776;BME280;885;42.626;23.200;2023-10-13T00:53:44;111266.34;;;11.62;100.00
1776;BME280;885;42.626;23.200;2023-10-13T00:56:12;111749.19;;;11.56;100.00
1776;BME280;885;42.626;23.200;2023-10-13T00:58:53;113627.44;;;11.52;100.00
1776;BME280;885;42.626;23.200;2023-10-13T01:01:20;114739.28;;;11.58;100.00
1776;BME280;885;42.626;23.200;2023-10-13T01:03:55;115491.13;;;11.68;100.00
1776;BME280;885;42.626;23.200;2023-10-13T01:06:25;114752.25;;;11.65;100.00
1776;BME280;885;42.626;23.200;2023-10-13T01:08:57;113631.09;;;11.54;100.00
1776;BME280;885;42.626;23.200;2023-10-13T01:11:23;114365.84;;;11.55;100.00
1776;BME280;885;42.626;23.200;2023-10-13T01:13:50;115481.72;;;11.63;100.00
1776;BME280;885;42.626;23.200;2023-10-13T01:16:19;115492.97;;;11.69;100.00
1776;BME280;885;42.626;23.200;2023-10-13T01:18:49;114372.28;;;11.58;100.00
1776;BME280;885;42.626;23.200;2023-10-13T01:21:15;113634.75;;;11.56;100.00
1776;BME280;885;42.626;23.200;2023-10-13T01:23:47;114015.50;;;11.64;100.00
1776;BME280;885;42.626;23.200;2023-10-13T01:26:16;113653.19;;;11.66;100.00
1776;BME280;885;42.626;23.200;2023-10-13T01:28:47;112542.44;;;11.61;100.00
1776;BME280;885;42.626;23.200;2023-10-13T01:31:14;112900.19;;;11.56;100.00
1776;BME280;885;42.626;23.200;2023-10-13T01:33:50;112531.53;;;11.55;100.00
1776;BME280;885;42.626;23.200;2023-10-13T01:36:20;112157.53;;;11.51;100.00
1776;BME280;885;42.626;23.200;2023-10-13T01:38:48;112524.28;;;11.51;100.00
1776;BME280;885;42.626;23.200;2023-10-13T01:41:15;112522.47;;;11.50;100.00
1776;BME280;885;42.626;23.200;2023-10-13T01:43:42;111768.56;;;11.45;100.00
1776;BME280;885;42.626;23.200;2023-10-13T01:46:10;111783.63;;;11.47;100.00
1776;BME280;885;42.626;23.200;2023-10-13T01:48:39;111220.41;;;11.46;100.00
1776;BME280;885;42.626;23.200;2023-10-13T01:51:07;111378.63;;;11.40;100.00
1776;BME280;885;42.626;23.200;2023-10-13T01:53:36;111203.38;;;11.36;100.00
1776;BME280;885;42.626;23.200;2023-10-13T01:56:05;111407.13;;;11.41;100.00
1776;BME280;885;42.626;23.200;2023-10-13T01:58:36;111018.50;;;11.42;100.00
1776;BME280;885;42.626;23.200;2023-10-13T02:01:03;110347.03;;;11.38;100.00
1776;BME280;885;42.626;23.200;2023-10-13T02:03:30;110299.06;;;11.40;100.00
1776;BME280;885;42.626;23.200;2023-10-13T02:05:56;110675.75;;;11.42;100.00
1776;BME280;885;42.626;23.200;2023-10-13T02:08:29;109854.22;;;11.41;100.00
1776;BME280;885;42.626;23.200;2023-10-13T02:10:57;109888.97;;;11.38;100.00
1776;BME280;885;42.626;23.200;2023-10-13T02:13:25;109254.59;;;11.37;100.00
1776;BME280;885;42.626;23.200;2023-10-13T02:15:56;108823.75;;;11.34;100.00
1776;BME280;885;42.626;23.200;2023-10-13T02:18:24;108623.03;;;11.31;100.00
1776;BME280;885;42.626;23.200;2023-10-13T02:21:03;109230.13;;;11.28;100.00
1776;BME280;885;42.626;23.200;2023-10-13T02:23:30;109441.94;;;11.28;100.00
1776;BME280;885;42.626;23.200;2023-10-13T02:25:59;109390.84;;;11.25;100.00
1776;BME280;885;42.626;23.200;2023-10-13T02:28:27;109992.38;;;11.28;100.00
1776;BME280;885;42.626;23.200;2023-10-13T02:31:01;109792.88;;;11.29;100.00
1776;BME280;885;42.626;23.200;2023-10-13T02:33:29;109807.59;;;11.26;100.00
1776;BME280;885;42.626;23.200;2023-10-13T02:35:56;110009.13;;;11.31;100.00
1776;BME280;885;42.626;23.200;2023-10-13T02:38:22;109427.38;;;11.29;100.00
1776;BME280;885;42.626;23.200;2023-10-13T02:40:57;109074.97;;;11.06;100.00
1776;BME280;885;42.626;23.200;2023-10-13T02:43:33;109863.94;;;11.25;100.00
1776;BME280;885;42.626;23.200;2023-10-13T02:45:59;108760.59;;;10.98;100.00
1776;BME280;885;42.626;23.200;2023-10-13T02:48:27;109553.56;;;10.93;100.00
1776;BME280;885;42.626;23.200;2023-10-13T02:50:57;110022.53;;;10.95;100.00
1776;BME280;885;42.626;23.200;2023-10-13T02:53:28;110954.56;;;10.93;100.00
1776;BME280;885;42.626;23.200;2023-10-13T02:55:55;111330.72;;;10.98;100.00
1776;BME280;885;42.626;23.200;2023-10-13T02:58:23;112063.16;;;11.01;100.00
1776;BME280;885;42.626;23.200;2023-10-13T03:01:05;111730.41;;;11.17;100.00
1776;BME280;885;42.626;23.200;2023-10-13T03:03:43;111751.19;;;11.29;100.00
1776;BME280;885;42.626;23.200;2023-10-13T03:06:09;111390.00;;;11.32;100.00
1776;BME280;885;42.626;23.200;2023-10-13T03:08:37;111181.69;;;11.34;100.00
1776;BME280;885;42.626;23.200;2023-10-13T03:11:03;111379.22;;;11.26;100.00
1776;BME280;885;42.626;23.200;2023-10-13T03:13:31;112072.97;;;11.28;100.00
1776;BME280;885;42.626;23.200;2023-10-13T03:15:58;112130.38;;;11.36;100.00
1776;BME280;885;42.626;23.200;2023-10-13T03:18:26;111377.66;;;11.31;100.00
1776;BME280;885;42.626;23.200;2023-10-13T03:20:59;110996.81;;;11.23;100.00
1776;BME280;885;42.626;23.200;2023-10-13T03:23:27;111371.13;;;11.21;100.00
1776;BME280;885;42.626;23.200;2023-10-13T03:25:54;111648.78;;;11.13;100.00
1776;BME280;885;42.626;23.200;2023-10-13T03:28:21;112080.66;;;11.08;100.00
1776;BME280;885;42.626;23.200;2023-10-13T03:30:59;112821.81;;;11.12;100.00
1776;BME280;885;42.626;23.200;2023-10-13T03:33:28;112823.66;;;11.13;100.00
1776;BME280;885;42.626;23.200;2023-10-13T03:35:58;112823.66;;;11.13;100.00
1776;BME280;885;42.626;23.200;2023-10-13T03:38:31;113562.31;;;11.16;100.00
1776;BME280;885;42.626;23.200;2023-10-13T03:41:01;113551.31;;;11.10;100.00
1776;BME280;885;42.626;23.200;2023-10-13T03:43:37;114664.25;;;11.17;100.00
1776;BME280;885;42.626;23.200;2023-10-13T03:46:16;114297.53;;;11.17;100.00
1776;BME280;885;42.626;23.200;2023-10-13T03:48:48;114290.13;;;11.13;100.00
1776;BME280;885;42.626;23.200;2023-10-13T03:51:25;114650.38;;;11.10;100.00
1776;BME280;885;42.626;23.200;2023-10-13T03:53:56;115026.34;;;11.15;100.00
1776;BME280;885;42.626;23.200;2023-10-13T03:56:25;114661.47;;;11.16;100.00
1776;BME280;885;42.626;23.200;2023-10-13T03:58:53;114284.56;;;11.10;100.00
1776;BME280;885;42.626;23.200;2023-10-13T04:01:23;113905.06;;;11.03;100.00
1776;BME280;885;42.626;23.200;2023-10-13T04:03:58;115006.84;;;11.04;100.00
1776;BME280;885;42.626;23.200;2023-10-13T04:06:34;114258.75;;;10.96;100.00
1776;BME280;885;42.626;23.200;2023-10-13T04:09:25;113543.03;;;11.06;100.00
1776;BME280;885;42.626;23.200;2023-10-13T04:12:09;113899.53;;;11.00;100.00
1776;BME280;885;42.626;23.200;2023-10-13T04:15:07;113535.72;;;11.02;100.00
1776;BME280;885;42.626;23.200;2023-10-13T04:17:48;113522.91;;;10.95;100.00
1776;BME280;885;42.626;23.200;2023-10-13T04:20:17;114250.44;;;10.92;100.00
1776;BME280;885;42.626;23.200;2023-10-13T04:22:58;114626.28;;;10.97;100.00
1776;BME280;885;42.626;23.200;2023-10-13T04:25:45;114991.03;;;10.96;100.00
1776;BME280;885;42.626;23.200;2023-10-13T04:28:34;115714.13;;;10.90;100.00
1776;BME280;885;42.626;23.200;2023-10-13T04:31:03;115719.72;;;10.93;100.00
1776;BME280;885;42.626;23.200;2023-10-13T04:33:38;115706.63;;;10.86;100.00
1776;BME280;885;42.626;23.200;2023-10-13T04:36:18;116813.34;;;10.90;100.00
1776;BME280;885;42.626;23.200;2023-10-13T04:39:02;116448.50;;;10.91;100.00
1776;BME280;885;42.626;23.200;2023-10-13T04:41:35;116441.88;;;10.87;100.00
1776;BME280;885;42.626;23.200;2023-10-13T04:44:05;116810.53;;;10.88;100.00
1776;BME280;885;42.626;23.200;2023-10-13T04:46:49;117182.06;;;10.91;100.00
1776;BME280;885;42.626;23.200;2023-10-13T04:49:37;117546.00;;;10.89;100.00
1776;BME280;885;42.626;23.200;2023-10-13T04:52:19;118274.03;;;10.86;100.00
1776;BME280;885;42.626;23.200;2023-10-13T04:55:11;118658.22;;;10.95;100.00
1776;BME280;885;42.626;23.200;2023-10-13T04:57:59;118293.16;;;10.96;100.00
1776;BME280;885;42.626;23.200;2023-10-13T05:00:36;118283.56;;;10.91;100.00
1776;BME280;885;42.626;23.200;2023-10-13T05:03:22;119024.22;;;10.95;100.00
1776;BME280;885;42.626;23.200;2023-10-13T05:06:18;119397.03;;;10.98;100.00
1776;BME280;885;42.626;23.200;2023-10-13T05:09:04;120147.75;;;11.06;100.00
1776;BME280;885;42.626;23.200;2023-10-13T05:11:48;120151.63;;;11.08;100.00
1776;BME280;885;42.626;23.200;2023-10-13T05:14:32;120166.25;;;11.16;100.00
1776;BME280;885;42.626;23.200;2023-10-13T05:17:24;119801.94;;;11.17;100.00
1776;BME280;885;42.626;23.200;2023-10-13T05:20:14;119812.59;;;11.23;100.00
1776;BME280;885;42.626;23.200;2023-10-13T05:22:58;119446.34;;;11.24;100.00
1776;BME280;885;42.626;23.200;2023-10-13T05:25:43;119082.97;;;11.26;100.00
1776;BME280;885;42.626;23.200;2023-10-13T05:28:28;118343.88;;;11.23;100.00
1776;BME280;885;42.626;23.200;2023-10-13T05:31:12;116857.75;;;11.13;100.00
1776;BME280;885;42.626;23.200;2023-10-13T05:33:56;116849.25;;;11.09;100.00
1776;BME280;885;42.626;23.200;2023-10-13T05:36:39;116851.16;;;11.10;100.00
1776;BME280;885;42.626;23.200;2023-10-13T05:39:24;117205.75;;;11.03;100.00
1776;BME280;885;42.626;23.200;2023-10-13T05:42:09;117953.88;;;11.11;100.00
1776;BME280;885;42.626;23.200;2023-10-13T05:44:53;118327.59;;;11.14;100.00
1776;BME280;885;42.626;23.200;2023-10-13T05:47:42;118703.31;;;11.19;100.00
1776;BME280;885;42.626;23.200;2023-10-13T05:50:26;118721.59;;;11.29;100.00
1776;BME280;885;42.626;23.200;2023-10-13T05:53:15;116506.88;;;11.22;100.00
1776;BME280;885;42.626;23.200;2023-10-13T05:56:04;115400.59;;;11.19;100.00
1776;BME280;885;42.626;23.200;2023-10-13T05:58:49;115007.78;;;11.05;100.00
1776;BME280;885;42.626;23.200;2023-10-13T06:01:33;116108.97;;;11.05;100.00
1776;BME280;885;42.626;23.200;2023-10-13T06:04:17;117275.88;;;11.41;100.00
1776;BME280;885;42.626;23.200;2023-10-13T06:07:01;116537.94;;;11.39;100.00
1776;BME280;885;42.626;23.200;2023-10-13T06:09:45;116927.69;;;11.51;100.00
1776;BME280;885;42.626;23.200;2023-10-13T06:12:30;116198.16;;;11.53;100.00
1776;BME280;885;42.626;23.200;2023-10-13T06:15:15;115458.41;;;11.50;100.00
1776;BME280;885;42.626;23.200;2023-10-13T06:17:59;115082.13;;;11.45;100.00
1776;BME280;885;42.626;23.200;2023-10-13T06:20:43;114708.69;;;11.42;100.00
1776;BME280;885;42.626;23.200;2023-10-13T06:23:27;115100.72;;;11.55;100.00
1776;BME280;885;42.626;23.200;2023-10-13T06:26:11;115098.84;;;11.54;100.00
1776;BME280;885;42.626;23.200;2023-10-13T06:28:55;115100.72;;;11.55;100.00
1776;BME280;885;42.626;23.200;2023-10-13T06:31:23;115470.53;;;11.57;100.00
1776;BME280;885;42.626;23.200;2023-10-13T06:33:51;116215.97;;;11.63;100.00
1776;BME280;885;42.626;23.200;2023-10-13T06:36:21;116957.94;;;11.67;100.00
1776;BME280;885;42.626;23.200;2023-10-13T06:38:48;117337.56;;;11.73;100.00
1776;BME280;885;42.626;23.200;2023-10-13T06:41:20;117711.56;;;11.77;100.00
1776;BME280;885;42.626;23.200;2023-10-13T06:43:55;117715.38;;;11.79;100.00
1776;BME280;885;42.626;23.200;2023-10-13T06:46:30;118096.13;;;11.86;100.00
1776;BME280;885;42.626;23.200;2023-10-13T06:48:59;118102.84;;;11.89;100.00
1776;BME280;885;42.626;23.200;2023-10-13T06:51:28;118113.31;;;11.95;100.00
1776;BME280;885;42.626;23.200;2023-10-13T06:54:04;118128.59;;;12.03;100.00
1776;BME280;885;42.626;23.200;2023-10-13T06:56:35;118519.16;;;12.15;100.00
1776;BME280;885;42.626;23.200;2023-10-13T06:59:05;118913.78;;;12.29;100.00
1776;BME280;885;42.626;23.200;2023-10-13T07:01:35;119671.69;;;12.41;100.00
1776;BME280;885;42.626;23.200;2023-10-13T07:04:06;120451.41;;;12.63;100.00
1776;BME280;885;42.626;23.200;2023-10-13T07:06:39;120856.69;;;12.83;100.00
1776;BME280;885;42.626;23.200;2023-10-13T07:09:10;120893.84;;;13.02;100.00
1776;BME280;885;42.626;23.200;2023-10-13T07:11:53;121315.25;;;13.29;100.00
1776;BME280;885;42.626;23.200;2023-10-13T07:14:26;122107.81;;;13.57;100.00
1776;BME280;885;42.626;23.200;2023-10-13T07:16:57;121401.53;;;13.73;99.66
1776;BME280;885;42.626;23.200;2023-10-13T07:19:24;121424.09;;;13.85;99.55
1776;BME280;885;42.626;23.200;2023-10-13T07:21:54;122203.53;;;14.06;98.86
1776;BME280;885;42.626;23.200;2023-10-13T07:24:24;122620.28;;;14.30;97.45
1776;BME280;885;42.626;23.200;2023-10-13T07:26:53;121894.50;;;14.37;95.71
1776;BME280;885;42.626;23.200;2023-10-13T07:29:28;121550.69;;;14.50;94.66
1776;BME280;885;42.626;23.200;2023-10-13T07:31:57;121203.88;;;14.61;94.37
1776;BME280;885;42.626;23.200;2023-10-13T07:34:24;121987.00;;;14.84;93.97
1776;BME280;885;42.626;23.200;2023-10-13T07:36:57;122767.91;;;15.05;93.50
1776;BME280;885;42.626;23.200;2023-10-13T07:39:26;123165.53;;;15.19;93.48
1776;BME280;885;42.626;23.200;2023-10-13T07:41:53;123945.50;;;15.39;92.81
1776;BME280;885;42.626;23.200;2023-10-13T07:44:29;124351.78;;;15.57;92.64
1776;BME280;885;42.626;23.200;2023-10-13T07:47:00;124757.31;;;15.75;92.60
1776;BME280;885;42.626;23.200;2023-10-13T07:49:29;124793.53;;;15.93;91.26
1776;BME280;885;42.626;23.200;2023-10-13T07:52:03;125949.94;;;16.15;91.88
1776;BME280;885;42.626;23.200;2023-10-13T07:54:43;126401.31;;;16.55;89.37
1776;BME280;885;42.626;23.200;2023-10-13T07:57:13;125702.94;;;16.77;86.33
1776;BME280;885;42.626;23.200;2023-10-13T07:59:42;125360.16;;;16.91;85.00
1776;BME280;885;42.626;23.200;2023-10-13T08:02:18;125382.41;;;17.02;84.88
1776;BME280;885;42.626;23.200;2023-10-13T08:05:12;125056.59;;;17.24;82.28
1776;BME280;885;42.626;23.200;2023-10-13T08:07:40;125080.78;;;17.36;82.33
1776;BME280;885;42.626;23.200;2023-10-13T08:10:08;125095.91;;;17.44;82.85
1776;BME280;885;42.626;23.200;2023-10-13T08:12:35;125129.22;;;17.61;81.37
1776;BME280;885;42.626;23.200;2023-10-13T08:15:03;125563.50;;;17.92;78.95
1776;BME280;885;42.626;23.200;2023-10-13T08:17:37;126387.56;;;18.32;77.94
1776;BME280;885;42.626;23.200;2023-10-13T08:20:11;126102.81;;;18.75;73.97
1776;BME280;885;42.626;23.200;2023-10-13T08:22:40;125793.28;;;19.06;71.97
1776;BME280;885;42.626;23.200;2023-10-13T08:25:12;126217.59;;;19.32;70.75
1776;BME280;885;42.626;23.200;2023-10-13T08:27:46;126264.38;;;19.55;71.40
1776;BME280;885;42.626;23.200;2023-10-13T08:30:29;126282.66;;;19.64;71.94
1776;BME280;885;42.626;23.200;2023-10-13T08:32:56;127430.13;;;19.78;74.27
1776;BME280;885;42.626;23.200;2023-10-13T08:35:25;127440.41;;;19.83;73.50
1776;BME280;885;42.626;23.200;2023-10-13T08:38:01;126692.25;;;19.82;72.59
1776;BME280;885;42.626;23.200;2023-10-13T08:40:43;125964.53;;;19.91;70.08
1776;BME280;885;42.626;23.200;2023-10-13T08:43:42;127886.56;;;20.19;72.33
1776;BME280;885;42.626;23.200;2023-10-13T08:46:10;128318.78;;;20.47;71.17
1776;BME280;885;42.626;23.200;2023-10-13T08:48:53;128023.47;;;20.86;65.96
1776;BME280;885;42.626;23.200;2023-10-13T08:51:33;127715.44;;;21.18;62.44
1776;BME280;885;42.626;23.200;2023-10-13T08:54:13;123645.97;;;21.39;58.73
1776;BME280;885;42.626;23.200;2023-10-13T08:56:59;121782.84;;;21.42;58.23
1776;BME280;885;42.626;23.200;2023-10-13T08:59:32;120273.56;;;21.33;58.00
1776;BME280;885;42.626;23.200;2023-10-13T09:02:12;120284.16;;;21.39;58.74
1776;BME280;885;42.626;23.200;2023-10-13T09:04:43;120315.06;;;21.55;58.35
1776;BME280;885;42.626;23.200;2023-10-13T09:07:11;121114.53;;;21.82;57.74
1776;BME280;885;42.626;23.200;2023-10-13T09:09:48;121545.69;;;22.12;56.31
1776;BME280;885;42.626;23.200;2023-10-13T09:12:26;121571.03;;;22.25;56.73
1776;BME280;885;42.626;23.200;2023-10-13T09:15:04;121601.25;;;22.41;55.68
1776;BME280;885;42.626;23.200;2023-10-13T09:17:31;120545.66;;;22.75;53.12
1776;BME280;885;42.626;23.200;2023-10-13T09:20:02;119473.81;;;23.02;52.08
1776;BME280;885;42.626;23.200;2023-10-13T09:22:51;117268.06;;;23.23;49.81
1776;BME280;885;42.626;23.200;2023-10-13T09:25:34;113469.47;;;23.07;48.72
1776;BME280;885;42.626;23.200;2023-10-13T09:28:01;112942.06;;;23.00;49.63
1776;BME280;885;42.626;23.200;2023-10-13T09:30:28;114319.13;;;23.25;50.19
1776;BME280;885;42.626;23.200;2023-10-13T09:32:59;114043.56;;;23.40;49.24
1776;BME280;885;42.626;23.200;2023-10-13T09:35:27;114827.97;;;23.63;48.97
1776;BME280;885;42.626;23.200;2023-10-13T09:37:58;115155.38;;;23.91;47.61
1776;BME280;885;42.626;23.200;2023-10-13T09:40:24;115136.25;;;24.14;46.44
1776;BME280;885;42.626;23.200;2023-10-13T09:42:52;114077.31;;;24.27;45.33
1776;BME280;885;42.626;23.200;2023-10-13T09:45:27;113878.16;;;24.43;45.03
1776;BME280;885;42.626;23.200;2023-10-13T09:47:55;113275.09;;;24.51;44.80
1776;BME280;885;42.626;23.200;2023-10-13T09:50:28;112339.94;;;24.37;45.36
1776;BME280;885;42.626;23.200;2023-10-13T09:53:02;111487.22;;;24.34;44.75
1776;BME280;885;42.626;23.200;2023-10-13T09:55:33;111858.81;;;24.39;45.56
1776;BME280;885;42.626;23.200;2023-10-13T09:58:04;111187.50;;;24.37;44.74
1776;BME280;885;42.626;23.200;2023-10-13T10:00:40;111565.66;;;24.49;44.93
1776;BME280;885;42.626;23.200;2023-10-13T10:03:12;112561.25;;;24.56;46.42
1776;BME280;885;42.626;23.200;2023-10-13T10:05:59;113002.03;;;24.70;46.10
1776;BME280;885;42.626;23.200;2023-10-13T10:08:33;113396.75;;;24.94;44.39
1776;BME280;885;42.626;23.200;2023-10-13T10:11:23;114237.38;;;25.32;43.33
1776;BME280;885;42.626;23.200;2023-10-13T10:13:56;114355.78;;;25.45;43.15
1776;BME280;885;42.626;23.200;2023-10-13T10:16:39;114154.63;;;25.44;43.45
1776;BME280;885;42.626;23.200;2023-10-13T10:19:07;113186.81;;;25.34;42.81
1776;BME280;885;42.626;23.200;2023-10-13T10:21:34;114071.78;;;25.57;42.74
1776;BME280;885;42.626;23.200;2023-10-13T10:24:13;114550.22;;;25.91;40.79
1776;BME280;885;42.626;23.200;2023-10-13T10:26:50;115797.59;;;26.25;40.91
1776;BME280;885;42.626;23.200;2023-10-13T10:29:18;116178.22;;;26.45;40.84
1776;BME280;885;42.626;23.200;2023-10-13T10:31:45;115978.44;;;26.62;40.04
1776;BME280;885;42.626;23.200;2023-10-13T10:34:13;114878.81;;;26.68;39.03
1776;BME280;885;42.626;23.200;2023-10-13T10:36:46;115117.47;;;26.87;38.79
1776;BME280;885;42.626;23.200;2023-10-13T10:39:14;114712.13;;;27.00;37.87
1776;BME280;885;42.626;23.200;2023-10-13T10:41:42;115279.03;;;27.11;38.78
1776;BME280;885;42.626;23.200;2023-10-13T10:44:17;114373.25;;;27.06;37.77
1776;BME280;885;42.626;23.200;2023-10-13T10:46:51;114238.41;;;27.24;36.88
1776;BME280;885;42.626;23.200;2023-10-13T10:49:23;113751.50;;;27.23;37.03
1776;BME280;885;42.626;23.200;2023-10-13T10:51:57;113125.38;;;27.23;36.48
1776;BME280;885;42.626;23.200;2023-10-13T10:54:27;113442.22;;;27.14;37.79
1776;BME280;885;42.626;23.200;2023-10-13T10:56:57;113555.22;;;27.25;37.44
1776;BME280;885;42.626;23.200;2023-10-13T10:59:36;113360.69;;;27.34;36.95
1776;BME280;885;42.626;23.200;2023-10-13T11:02:04;111050.09;;;27.01;36.52
1776;BME280;885;42.626;23.200;2023-10-13T11:04:32;110761.47;;;26.85;37.38
1776;BME280;885;42.626;23.200;2023-10-13T11:07:00;110055.66;;;26.91;36.58
1776;BME280;885;42.626;23.200;2023-10-13T11:09:30;109919.13;;;26.94;36.12
1776;BME280;885;42.626;23.200;2023-10-13T11:12:10;110760.53;;;27.05;37.13
1776;BME280;885;42.626;23.200;2023-10-13T11:14:59;110688.53;;;27.17;36.31
1776;BME280;885;42.626;23.200;2023-10-13T11:17:27;110990.53;;;27.35;35.97
1776;BME280;885;42.626;23.200;2023-10-13T11:20:08;109787.97;;;27.21;35.48
1776;BME280;885;42.626;23.200;2023-10-13T11:22:42;109644.94;;;27.08;36.26
1776;BME280;885;42.626;23.200;2023-10-13T11:25:20;110333.28;;;27.31;35.53
1776;BME280;885;42.626;23.200;2023-10-13T11:27:49;112217.66;;;27.76;35.54
1776;BME280;885;42.626;23.200;2023-10-13T11:30:47;112663.31;;;27.90;35.31
1776;BME280;885;42.626;23.200;2023-10-13T11:33:16;112763.25;;;27.85;35.66
1776;BME280;885;42.626;23.200;2023-10-13T11:35:48;111625.69;;;27.81;34.98
1776;BME280;885;42.626;23.200;2023-10-13T11:38:22;110995.50;;;27.65;35.33
1776;BME280;885;42.626;23.200;2023-10-13T11:40:53;110667.41;;;27.69;35.06
1776;BME280;885;42.626;23.200;2023-10-13T11:43:38;111607.16;;;27.80;35.29
1776;BME280;885;42.626;23.200;2023-10-13T11:46:27;112071.72;;;27.92;35.68
1776;BME280;885;42.626;23.200;2023-10-13T11:49:11;114703.94;;;28.32;36.30
1776;BME280;885;42.626;23.200;2023-10-13T11:51:45;113692.69;;;28.51;34.02
1776;BME280;885;42.626;23.200;2023-10-13T11:54:12;114506.41;;;28.74;33.81
1776;BME280;885;42.626;23.200;2023-10-13T11:56:40;114105.78;;;28.79;33.33
1776;BME280;885;42.626;23.200;2023-10-13T11:59:07;113689.19;;;28.67;33.83
1776;BME280;885;42.626;23.200;2023-10-13T12:01:43;113249.19;;;28.55;34.15
1776;BME280;885;42.626;23.200;2023-10-13T12:04:28;113532.53;;;28.70;33.58
1776;BME280;885;42.626;23.200;2023-10-13T12:07:06;113969.41;;;29.03;32.68
1776;BME280;885;42.626;23.200;2023-10-13T12:09:43;115086.44;;;29.29;32.41
1776;BME280;885;42.626;23.200;2023-10-13T12:12:29;115301.28;;;29.54;31.88
1776;BME280;885;42.626;23.200;2023-10-13T12:14:57;115049.47;;;29.54;32.07
1776;BME280;885;42.626;23.200;2023-10-13T12:17:35;113913.59;;;29.39;31.70
1776;BME280;885;42.626;23.200;2023-10-13T12:20:06;112718.19;;;29.27;31.46
1776;BME280;885;42.626;23.200;2023-10-13T12:22:36;111380.03;;;29.00;31.94
1776;BME280;885;42.626;23.200;2023-10-13T12:25:05;111097.25;;;28.90;31.91
1776;BME280;885;42.626;23.200;2023-10-13T12:27:45;110436.75;;;28.80;31.90
1776;BME280;885;42.626;23.200;2023-10-13T12:30:13;110114.31;;;28.64;32.73
1776;BME280;885;42.626;23.200;2023-10-13T12:32:49;109310.03;;;28.58;32.03
1776;BME280;885;42.626;23.200;2023-10-13T12:35:31;110659.78;;;28.93;31.88
1776;BME280;885;42.626;23.200;2023-10-13T12:38:00;110797.44;;;29.11;31.32
1776;BME280;885;42.626;23.200;2023-10-13T12:40:31;112144.53;;;29.41;31.38
1776;BME280;885;42.626;23.200;2023-10-13T12:43:15;111654.75;;;29.38;31.01
1776;BME280;885;42.626;23.200;2023-10-13T12:45:59;110835.03;;;29.24;30.83
1776;BME280;885;42.626;23.200;2023-10-13T12:48:45;111562.75;;;29.51;30.52
1776;BME280;885;42.626;23.200;2023-10-13T12:51:43;111367.50;;;29.54;30.55
1776;BME280;885;42.626;23.200;2023-10-13T12:54:17;111334.81;;;29.45;30.89
1776;BME280;885;42.626;23.200;2023-10-13T12:56:49;108795.75;;;29.05;30.29
1776;BME280;885;42.626;23.200;2023-10-13T12:59:22;108577.28;;;28.91;31.04
1776;BME280;885;42.626;23.200;2023-10-13T13:01:52;107991.34;;;28.72;31.76
1776;BME280;885;42.626;23.200;2023-10-13T13:04:20;107151.78;;;28.61;31.21
1776;BME280;885;42.626;23.200;2023-10-13T13:06:47;105996.78;;;28.33;31.38
1776;BME280;885;42.626;23.200;2023-10-13T13:09:14;106846.00;;;28.38;32.12
1776;BME280;885;42.626;23.200;2023-10-13T13:11:41;105681.13;;;28.16;31.88
1776;BME280;885;42.626;23.200;2023-10-13T13:14:09;106032.91;;;28.26;31.95
1776;BME280;885;42.626;23.200;2023-10-13T13:16:36;106213.50;;;28.36;31.65
1776;BME280;885;42.626;23.200;2023-10-13T13:19:05;106809.41;;;28.69;30.74
1776;BME280;885;42.626;23.200;2023-10-13T13:21:38;107041.66;;;28.88;30.28
1776;BME280;885;42.626;23.200;2023-10-13T13:24:06;106319.47;;;28.75;30.21
1776;BME280;885;42.626;23.200;2023-10-13T13:26:36;106552.28;;;28.77;30.70
1776;BME280;885;42.626;23.200;2023-10-13T13:29:05;107042.41;;;28.81;31.23
1776;BME280;885;42.626;23.200;2023-10-13T13:31:35;107305.69;;;28.91;30.78
1776;BME280;885;42.626;23.200;2023-10-13T13:34:06;107136.34;;;28.97;30.39
1776;BME280;885;42.626;23.200;2023-10-13T13:36:34;107465.69;;;29.02;30.64
1776;BME280;885;42.626;23.200;2023-10-13T13:39:02;107320.94;;;28.96;31.19
1776;BME280;885;42.626;23.200;2023-10-13T13:41:31;107603.06;;;29.14;30.38